createdAt,value
2023-05-05T00:00:36.358Z,11.42
2023-05-05T00:01:36.356Z,11.45
2023-05-05T00:02:36.658Z,11.53
2023-05-05T00:03:36.449Z,11.51
2023-05-05T00:04:36.351Z,11.44
2023-05-05T00:05:36.320Z,11.49
2023-05-05T00:06:36.327Z,11.44
2023-05-05T00:07:36.307Z,11.42
2023-05-05T00:08:36.354Z,11.38
2023-05-05T00:09:36.309Z,11.46
2023-05-05T00:10:36.294Z,11.39
2023-05-05T00:11:36.281Z,11.53
2023-05-05T00:12:36.294Z,11.39
2023-05-05T00:13:36.324Z,11.41
2023-05-05T00:14:36.290Z,11.42
2023-05-05T00:15:36.243Z,11.48
2023-05-05T00:16:36.299Z,11.42
2023-05-05T00:17:36.281Z,11.38
2023-05-05T00:18:36.215Z,11.44
2023-05-05T00:19:36.206Z,11.36
2023-05-05T00:20:36.268Z,11.38
2023-05-05T00:21:36.210Z,11.31
2023-05-05T00:22:36.237Z,11.41
2023-05-05T00:23:36.261Z,11.33
2023-05-05T00:24:36.190Z,11.39
2023-05-05T00:25:36.224Z,11.38
2023-05-05T00:26:36.233Z,11.36
2023-05-05T00:27:37.008Z,11.33
2023-05-05T00:28:36.175Z,11.38
2023-05-05T00:29:36.200Z,11.28
2023-05-05T00:30:36.148Z,11.41
2023-05-05T00:31:36.178Z,11.35
2023-05-05T00:32:36.217Z,11.26
2023-05-05T00:33:36.127Z,11.31
2023-05-05T00:34:36.117Z,11.31
2023-05-05T00:35:36.124Z,11.27
2023-05-05T00:36:36.114Z,11.26
2023-05-05T00:37:36.110Z,11.27
2023-05-05T00:38:36.144Z,11.20
2023-05-05T00:39:36.112Z,11.20
2023-05-05T00:40:36.069Z,11.23
2023-05-05T00:41:36.082Z,11.13
2023-05-05T00:42:36.095Z,11.17
2023-05-05T00:43:36.093Z,11.19
2023-05-05T00:44:36.298Z,11.13
2023-05-05T00:45:36.040Z,11.09
2023-05-05T00:46:36.190Z,11.24
2023-05-05T00:47:36.050Z,11.16
2023-05-05T00:48:36.091Z,11.24
2023-05-05T00:49:36.057Z,11.24
2023-05-05T00:50:36.049Z,11.20
2023-05-05T00:51:36.017Z,11.20
2023-05-05T00:52:36.006Z,11.21
2023-05-05T00:53:36.006Z,11.28
2023-05-05T00:54:36.006Z,11.35
2023-05-05T00:55:35.982Z,11.24
2023-05-05T00:56:36.456Z,11.24
2023-05-05T00:57:35.970Z,11.30
2023-05-05T00:58:35.976Z,11.35
2023-05-05T00:59:35.960Z,11.35
2023-05-05T01:00:35.939Z,11.36
2023-05-05T01:01:35.978Z,11.36
2023-05-05T01:02:36.030Z,11.35
2023-05-05T01:03:36.035Z,11.36
2023-05-05T01:04:35.940Z,11.42
2023-05-05T01:05:35.902Z,11.33
2023-05-05T01:06:35.940Z,11.35
2023-05-05T01:07:35.927Z,11.45
2023-05-05T01:08:35.970Z,11.45
2023-05-05T01:09:35.906Z,11.38
2023-05-05T01:10:36.020Z,11.39
2023-05-05T01:11:35.871Z,11.35
2023-05-05T01:12:35.868Z,11.41
2023-05-05T01:13:35.850Z,11.35
2023-05-05T01:14:35.903Z,11.44
2023-05-05T01:15:35.830Z,11.44
2023-05-05T01:16:35.918Z,11.35
2023-05-05T01:17:35.836Z,11.41
2023-05-05T01:18:35.828Z,11.31
2023-05-05T01:19:35.822Z,11.39
2023-05-05T01:20:36.019Z,11.33
2023-05-05T01:21:35.789Z,11.35
2023-05-05T01:22:35.777Z,11.23
2023-05-05T01:23:35.770Z,11.30
2023-05-05T01:24:35.763Z,11.30
2023-05-05T01:25:35.768Z,11.27
2023-05-05T01:26:35.825Z,11.35
2023-05-05T01:27:35.768Z,11.31
2023-05-05T01:28:35.738Z,11.23
2023-05-05T01:29:35.728Z,11.26
2023-05-05T01:30:35.727Z,11.31
2023-05-05T01:31:35.781Z,11.28
2023-05-05T01:32:35.802Z,11.24
2023-05-05T01:33:35.756Z,11.17
2023-05-05T01:34:35.724Z,11.12
2023-05-05T01:35:35.683Z,11.16
2023-05-05T01:36:35.679Z,11.21
2023-05-05T01:37:35.687Z,11.21
2023-05-05T01:38:35.718Z,11.21
2023-05-05T01:39:35.675Z,11.23
2023-05-05T01:40:35.714Z,11.21
2023-05-05T01:41:35.626Z,11.24
2023-05-05T01:42:35.661Z,11.21
2023-05-05T01:43:35.613Z,11.20
2023-05-05T01:44:35.710Z,11.17
2023-05-05T01:45:35.661Z,11.27
2023-05-05T01:46:35.615Z,11.20
2023-05-05T01:47:35.638Z,11.16
2023-05-05T01:48:35.607Z,11.16
2023-05-05T01:49:35.589Z,11.13
2023-05-05T01:50:35.663Z,11.17
2023-05-05T01:51:35.566Z,11.20
2023-05-05T01:52:35.566Z,11.05
2023-05-05T01:53:35.570Z,11.21
2023-05-05T01:54:35.587Z,11.11
2023-05-05T01:55:35.540Z,11.09
2023-05-05T01:56:35.590Z,11.09
2023-05-05T01:57:35.524Z,11.06
2023-05-05T01:58:35.580Z,11.19
2023-05-05T01:59:35.615Z,11.12
2023-05-05T02:00:35.708Z,11.17
2023-05-05T02:01:35.547Z,11.08
2023-05-05T02:02:36.123Z,11.09
2023-05-05T02:03:35.713Z,11.02
2023-05-05T02:04:35.641Z,11.12
2023-05-05T02:05:35.491Z,11.09
2023-05-05T02:06:35.517Z,11.05
2023-05-05T02:07:35.564Z,11.09
2023-05-05T02:08:35.725Z,11.01
2023-05-05T02:09:35.464Z,11.03
2023-05-05T02:10:35.480Z,10.95
2023-05-05T02:11:35.509Z,10.93
2023-05-05T02:12:35.675Z,10.94
2023-05-05T02:13:35.578Z,11.01
2023-05-05T02:14:35.651Z,11.01
2023-05-05T02:15:35.652Z,10.94
2023-05-05T02:16:35.611Z,11.03
2023-05-05T02:17:35.558Z,11.03
2023-05-05T02:18:35.527Z,10.98
2023-05-05T02:19:35.611Z,11.01
2023-05-05T02:20:35.812Z,10.91
2023-05-05T02:21:35.584Z,11.06
2023-05-05T02:22:35.396Z,11.02
2023-05-05T02:23:35.573Z,10.93
2023-05-05T02:24:35.605Z,11.01
2023-05-05T02:25:35.327Z,10.95
2023-05-05T02:26:35.360Z,10.93
2023-05-05T02:27:35.310Z,10.93
2023-05-05T02:28:35.315Z,10.93
2023-05-05T02:29:35.346Z,10.83
2023-05-05T02:30:35.271Z,10.90
2023-05-05T02:31:35.321Z,10.84
2023-05-05T02:32:35.379Z,10.75
2023-05-05T02:33:35.262Z,10.69
2023-05-05T02:34:35.271Z,10.72
2023-05-05T02:35:35.246Z,10.81
2023-05-05T02:36:35.240Z,10.80
2023-05-05T02:37:35.250Z,10.76
2023-05-05T02:38:35.270Z,10.63
2023-05-05T02:39:35.224Z,10.66
2023-05-05T02:40:35.249Z,10.58
2023-05-05T02:41:35.217Z,10.60
2023-05-05T02:42:35.192Z,10.52
2023-05-05T02:43:35.208Z,10.66
2023-05-05T02:44:35.231Z,10.55
2023-05-05T02:45:35.189Z,10.54
2023-05-05T02:46:35.211Z,10.55
2023-05-05T02:47:35.242Z,10.43
2023-05-05T02:48:35.165Z,10.43
2023-05-05T02:49:35.162Z,10.38
2023-05-05T02:50:35.205Z,10.38
2023-05-05T02:51:35.122Z,10.34
2023-05-05T02:52:35.119Z,10.29
2023-05-05T02:53:35.110Z,10.34
2023-05-05T02:54:35.121Z,10.26
2023-05-05T02:55:35.100Z,10.29
2023-05-05T02:56:35.154Z,10.26
2023-05-05T02:57:35.088Z,10.35
2023-05-05T02:58:35.069Z,10.32
2023-05-05T02:59:35.076Z,10.28
2023-05-05T03:00:35.069Z,10.29
2023-05-05T03:01:35.118Z,10.35
2023-05-05T03:02:35.214Z,10.34
2023-05-05T03:03:35.137Z,10.29
2023-05-05T03:04:35.028Z,10.31
2023-05-05T03:05:35.047Z,10.28
2023-05-05T03:06:35.034Z,10.24
2023-05-05T03:07:35.018Z,10.20
2023-05-05T03:08:35.461Z,10.28
2023-05-05T03:09:35.032Z,10.25
2023-05-05T03:10:35.003Z,10.25
2023-05-05T03:11:35.021Z,10.29
2023-05-05T03:12:35.028Z,10.14
2023-05-05T03:13:34.967Z,10.17
2023-05-05T03:14:35.021Z,10.26
2023-05-05T03:15:34.981Z,10.10
2023-05-05T03:16:35.015Z,10.13
2023-05-05T03:17:35.028Z,10.11
2023-05-05T03:18:34.947Z,10.06
2023-05-05T03:19:34.946Z,10.07
2023-05-05T03:20:34.965Z,10.04
2023-05-05T03:21:34.908Z,9.99
2023-05-05T03:22:34.906Z,9.85
2023-05-05T03:23:34.902Z,9.83
2023-05-05T03:24:35.355Z,9.77
2023-05-05T03:25:34.880Z,9.93
2023-05-05T03:26:34.929Z,9.85
2023-05-05T03:27:34.898Z,9.91
2023-05-05T03:28:34.897Z,9.83
2023-05-05T03:29:34.834Z,9.77
2023-05-05T03:30:34.855Z,9.68
2023-05-05T03:31:34.898Z,9.71
2023-05-05T03:32:34.938Z,9.73
2023-05-05T03:33:34.834Z,9.74
2023-05-05T03:34:34.858Z,9.74
2023-05-05T03:35:34.806Z,9.63
2023-05-05T03:36:34.798Z,9.70
2023-05-05T03:37:34.798Z,9.77
2023-05-05T03:38:34.865Z,9.67
2023-05-05T03:39:34.779Z,9.73
2023-05-05T03:40:43.547Z,9.70
2023-05-05T03:41:35.758Z,9.62
2023-05-05T03:42:34.756Z,9.73
2023-05-05T03:43:34.770Z,9.73
2023-05-05T03:44:34.796Z,9.63
2023-05-05T03:45:34.760Z,9.73
2023-05-05T03:46:34.741Z,9.70
2023-05-05T03:47:34.785Z,9.68
2023-05-05T03:48:34.729Z,9.59
2023-05-05T03:49:34.728Z,9.70
2023-05-05T03:50:34.849Z,9.60
2023-05-05T03:51:34.685Z,9.53
2023-05-05T03:52:34.707Z,9.50
2023-05-05T03:53:34.699Z,9.56
2023-05-05T03:54:34.654Z,9.48
2023-05-05T03:55:34.660Z,9.40
2023-05-05T03:56:34.702Z,9.55
2023-05-05T03:57:34.659Z,9.59
2023-05-05T03:58:34.666Z,9.53
2023-05-05T03:59:34.666Z,9.44
2023-05-05T04:00:34.619Z,9.58
2023-05-05T04:01:34.620Z,9.55
2023-05-05T04:02:34.734Z,9.63
2023-05-05T04:03:34.644Z,9.75
2023-05-05T04:04:34.712Z,9.70
2023-05-05T04:05:34.610Z,9.60
2023-05-05T04:06:34.630Z,9.67
2023-05-05T04:07:34.594Z,9.80
2023-05-05T04:08:34.627Z,9.78
2023-05-05T04:09:34.557Z,9.78
2023-05-05T04:10:34.570Z,9.73
2023-05-05T04:11:34.553Z,9.77
2023-05-05T04:12:34.585Z,9.92
2023-05-05T04:13:34.530Z,9.88
2023-05-05T04:14:34.752Z,9.95
2023-05-05T04:15:34.505Z,9.85
2023-05-05T04:16:34.531Z,10.01
2023-05-05T04:17:34.562Z,10.02
2023-05-05T04:18:34.519Z,10.11
2023-05-05T04:19:34.499Z,10.14
2023-05-05T04:20:34.531Z,10.16
2023-05-05T04:21:34.507Z,10.29
2023-05-05T04:22:34.465Z,10.20
2023-05-05T04:23:34.468Z,10.22
2023-05-05T04:24:34.479Z,10.35
2023-05-05T04:25:34.456Z,10.34
2023-05-05T04:26:34.567Z,10.28
2023-05-05T04:27:34.456Z,10.22
2023-05-05T04:28:34.470Z,10.26
2023-05-05T04:29:34.422Z,10.26
2023-05-05T04:30:34.404Z,10.09
2023-05-05T04:31:34.447Z,10.14
2023-05-05T04:32:34.480Z,10.18
2023-05-05T04:33:34.417Z,10.11
2023-05-05T04:34:34.390Z,10.14
2023-05-05T04:35:34.384Z,10.18
2023-05-05T04:36:34.350Z,10.18
2023-05-05T04:37:34.346Z,10.16
2023-05-05T04:38:34.460Z,10.18
2023-05-05T04:39:34.347Z,10.26
2023-05-05T04:40:34.338Z,10.34
2023-05-05T04:41:34.320Z,10.29
2023-05-05T04:42:34.338Z,10.29
2023-05-05T04:43:34.342Z,10.28
2023-05-05T04:44:34.349Z,10.25
2023-05-05T04:45:34.336Z,10.34
2023-05-05T04:46:34.289Z,10.36
2023-05-05T04:47:34.302Z,10.28
2023-05-05T04:48:34.390Z,10.34
2023-05-05T04:49:34.286Z,10.38
2023-05-05T04:50:34.296Z,10.39
2023-05-05T04:51:34.254Z,10.39
2023-05-05T04:52:34.278Z,10.49
2023-05-05T04:53:34.245Z,10.43
2023-05-05T04:54:34.241Z,10.46
2023-05-05T04:55:34.233Z,10.44
2023-05-05T04:56:34.273Z,10.46
2023-05-05T04:57:34.209Z,10.44
2023-05-05T04:58:34.221Z,10.39
2023-05-05T04:59:34.199Z,10.49
2023-05-05T05:00:34.218Z,10.39
2023-05-05T05:01:35.241Z,10.43
2023-05-05T05:02:34.294Z,10.42
2023-05-05T05:03:34.216Z,10.29
2023-05-05T05:04:34.192Z,10.44
2023-05-05T05:05:34.162Z,10.43
2023-05-05T05:06:34.158Z,10.42
2023-05-05T05:07:34.149Z,10.34
2023-05-05T05:08:34.179Z,10.44
2023-05-05T05:09:34.134Z,10.44
2023-05-05T05:10:34.150Z,10.54
2023-05-05T05:11:34.192Z,10.49
2023-05-05T05:12:34.128Z,10.46
2023-05-05T05:13:34.128Z,10.44
2023-05-05T05:14:34.122Z,10.65
2023-05-05T05:15:34.086Z,10.51
2023-05-05T05:16:34.098Z,10.52
2023-05-05T05:17:34.074Z,10.43
2023-05-05T05:18:34.075Z,10.46
2023-05-05T05:19:34.091Z,10.60
2023-05-05T05:20:34.403Z,10.58
2023-05-05T05:21:34.051Z,10.66
2023-05-05T05:22:34.026Z,10.66
2023-05-05T05:23:34.022Z,10.65
2023-05-05T05:24:34.031Z,10.65
2023-05-05T05:25:34.041Z,10.69
2023-05-05T05:26:34.058Z,10.68
2023-05-05T05:27:33.995Z,10.75
2023-05-05T05:28:33.996Z,10.83
2023-05-05T05:29:33.987Z,10.83
2023-05-05T05:30:34.002Z,11.02
2023-05-05T05:31:33.967Z,11.06
2023-05-05T05:32:34.034Z,11.16
2023-05-05T05:33:33.992Z,11.23
2023-05-05T05:34:33.956Z,11.23
2023-05-05T05:35:33.945Z,11.21
2023-05-05T05:36:33.938Z,11.24
2023-05-05T05:37:33.919Z,11.44
2023-05-05T05:38:33.936Z,11.81
2023-05-05T05:39:33.923Z,11.79
2023-05-05T05:40:33.918Z,12.01
2023-05-05T05:41:33.916Z,12.13
2023-05-05T05:42:33.892Z,12.04
2023-05-05T05:43:33.896Z,11.97
2023-05-05T05:44:33.909Z,12.01
2023-05-05T05:45:33.868Z,11.93
2023-05-05T05:46:33.964Z,11.82
2023-05-05T05:47:33.912Z,11.72
2023-05-05T05:48:33.854Z,11.72
2023-05-05T05:49:33.872Z,11.75
2023-05-05T05:50:33.868Z,11.79
2023-05-05T05:51:33.824Z,11.82
2023-05-05T05:52:33.817Z,11.90
2023-05-05T05:53:33.828Z,11.90
2023-05-05T05:54:33.814Z,11.84
2023-05-05T05:55:33.795Z,12.00
2023-05-05T05:56:33.829Z,12.11
2023-05-05T05:57:33.793Z,12.25
2023-05-05T05:58:33.787Z,12.29
2023-05-05T05:59:33.763Z,12.44
2023-05-05T06:00:33.747Z,12.62
2023-05-05T06:01:33.764Z,12.89
2023-05-05T06:02:33.883Z,12.94
2023-05-05T06:03:33.852Z,12.99
2023-05-05T06:04:33.774Z,12.84
2023-05-05T06:05:33.721Z,12.80
2023-05-05T06:06:33.743Z,13.07
2023-05-05T06:07:33.738Z,13.10
2023-05-05T06:08:33.763Z,12.99
2023-05-05T06:09:33.724Z,13.10
2023-05-05T06:10:34.012Z,13.09
2023-05-05T06:11:33.716Z,13.19
2023-05-05T06:12:33.670Z,13.31
2023-05-05T06:13:33.652Z,13.38
2023-05-05T06:14:33.751Z,13.36
2023-05-05T06:15:33.669Z,13.46
2023-05-05T06:16:33.698Z,13.51
2023-05-05T06:17:33.681Z,13.62
2023-05-05T06:18:33.620Z,13.55
2023-05-05T06:19:33.654Z,13.41
2023-05-05T06:20:33.691Z,13.24
2023-05-05T06:21:33.608Z,13.32
2023-05-05T06:22:33.597Z,13.47
2023-05-05T06:23:33.608Z,13.62
2023-05-05T06:24:33.584Z,13.66
2023-05-05T06:25:33.602Z,13.80
2023-05-05T06:26:33.633Z,13.90
2023-05-05T06:27:33.571Z,13.98
2023-05-05T06:28:33.568Z,14.12
2023-05-05T06:29:33.571Z,14.34
2023-05-05T06:30:33.582Z,14.56
2023-05-05T06:31:33.578Z,14.64
2023-05-05T06:32:33.605Z,14.87
2023-05-05T06:33:33.515Z,15.19
2023-05-05T06:34:33.495Z,15.11
2023-05-05T06:35:33.520Z,14.97
2023-05-05T06:36:33.524Z,14.75
2023-05-05T06:37:33.516Z,14.90
2023-05-05T06:38:33.529Z,14.90
2023-05-05T06:39:33.462Z,14.82
2023-05-05T06:40:33.462Z,14.85
2023-05-05T06:41:33.454Z,14.86
2023-05-05T06:42:33.486Z,14.95
2023-05-05T06:43:33.442Z,15.00
2023-05-05T06:44:33.484Z,15.16
2023-05-05T06:45:33.436Z,15.15
2023-05-05T06:46:33.501Z,15.15
2023-05-05T06:47:33.746Z,15.33
2023-05-05T06:48:33.450Z,15.16
2023-05-05T06:49:33.392Z,15.20
2023-05-05T06:50:33.468Z,15.22
2023-05-05T06:51:33.438Z,15.03
2023-05-05T06:52:33.463Z,14.91
2023-05-05T06:53:33.463Z,14.80
2023-05-05T06:54:33.435Z,14.87
2023-05-05T06:55:33.433Z,14.78
2023-05-05T06:56:33.459Z,14.82
2023-05-05T06:57:33.426Z,15.03
2023-05-05T06:58:33.403Z,15.03
2023-05-05T06:59:33.403Z,15.09
2023-05-05T07:00:33.362Z,15.19
2023-05-05T07:01:33.331Z,15.23
2023-05-05T07:02:33.372Z,15.31
2023-05-05T07:03:33.399Z,15.38
2023-05-05T07:04:33.300Z,15.52
2023-05-05T07:05:33.286Z,15.49
2023-05-05T07:06:33.278Z,15.53
2023-05-05T07:07:33.275Z,15.55
2023-05-05T07:08:33.319Z,15.55
2023-05-05T07:09:33.272Z,15.60
2023-05-05T07:10:33.283Z,15.76
2023-05-05T07:11:33.275Z,15.76
2023-05-05T07:12:33.304Z,15.84
2023-05-05T07:13:33.217Z,15.88
2023-05-05T07:14:33.253Z,15.96
2023-05-05T07:15:33.210Z,16.22
2023-05-05T07:16:33.266Z,16.10
2023-05-05T07:17:33.204Z,16.23
2023-05-05T07:18:33.212Z,16.17
2023-05-05T07:19:33.611Z,16.27
2023-05-05T07:20:33.222Z,16.47
2023-05-05T07:21:33.185Z,16.37
2023-05-05T07:22:33.172Z,16.37
2023-05-05T07:23:33.170Z,16.51
2023-05-05T07:24:33.159Z,16.55
2023-05-05T07:25:33.135Z,16.65
2023-05-05T07:26:33.648Z,16.54
2023-05-05T07:27:33.135Z,16.47
2023-05-05T07:28:33.153Z,16.52
2023-05-05T07:29:33.121Z,16.70
2023-05-05T07:30:33.105Z,16.96
2023-05-05T07:31:33.149Z,17.14
2023-05-05T07:32:33.142Z,17.21
2023-05-05T07:33:33.083Z,17.14
2023-05-05T07:34:33.112Z,17.21
2023-05-05T07:35:33.129Z,17.25
2023-05-05T07:36:33.090Z,17.45
2023-05-05T07:37:33.047Z,17.63
2023-05-05T07:38:33.090Z,17.81
2023-05-05T07:39:33.046Z,18.10
2023-05-05T07:40:33.013Z,18.20
2023-05-05T07:41:33.030Z,18.13
2023-05-05T07:42:33.023Z,17.76
2023-05-05T07:43:33.038Z,17.95
2023-05-05T07:44:33.072Z,17.94
2023-05-05T07:45:33.041Z,18.17
2023-05-05T07:46:33.042Z,18.23
2023-05-05T07:47:33.036Z,18.59
2023-05-05T07:48:32.997Z,18.65
2023-05-05T07:49:32.966Z,18.72
2023-05-05T07:50:33.021Z,18.76
2023-05-05T07:51:34.488Z,18.64
2023-05-05T07:52:45.054Z,18.76
2023-05-05T07:53:33.952Z,18.93
2023-05-05T07:54:32.927Z,19.01
2023-05-05T07:55:32.926Z,19.13
2023-05-05T07:56:32.958Z,19.10
2023-05-05T07:57:32.942Z,19.12
2023-05-05T07:58:32.907Z,18.86
2023-05-05T07:59:32.889Z,18.94
2023-05-05T08:00:32.882Z,18.97
2023-05-05T08:01:32.904Z,18.84
2023-05-05T08:02:33.001Z,18.62
2023-05-05T08:03:33.148Z,18.74
2023-05-05T08:04:32.888Z,18.74
2023-05-05T08:05:32.854Z,18.78
2023-05-05T08:06:32.855Z,18.96
2023-05-05T08:07:32.890Z,18.93
2023-05-05T08:08:32.897Z,19.01
2023-05-05T08:09:32.826Z,19.23
2023-05-05T08:10:32.806Z,19.31
2023-05-05T08:11:32.807Z,19.38
2023-05-05T08:12:32.805Z,19.35
2023-05-05T08:13:32.793Z,19.60
2023-05-05T08:14:32.824Z,19.75
2023-05-05T08:15:32.768Z,19.83
2023-05-05T08:16:32.860Z,20.04
2023-05-05T08:17:32.789Z,20.07
2023-05-05T08:18:32.746Z,20.04
2023-05-05T08:19:32.754Z,20.25
2023-05-05T08:20:32.791Z,20.37
2023-05-05T08:21:32.733Z,20.41
2023-05-05T08:22:32.739Z,20.44
2023-05-05T08:23:32.832Z,20.27
2023-05-05T08:24:32.792Z,20.27
2023-05-05T08:25:32.729Z,20.53
2023-05-05T08:26:32.739Z,20.60
2023-05-05T08:27:32.688Z,20.83
2023-05-05T08:28:32.684Z,20.94
2023-05-05T08:29:32.672Z,21.16
2023-05-05T08:30:32.670Z,21.16
2023-05-05T08:31:32.699Z,21.31
2023-05-05T08:32:33.079Z,21.38
2023-05-05T08:33:32.676Z,21.27
2023-05-05T08:34:32.636Z,21.21
2023-05-05T08:35:32.671Z,21.08
2023-05-05T08:36:32.626Z,21.16
2023-05-05T08:37:32.616Z,21.24
2023-05-05T08:38:32.655Z,21.13
2023-05-05T08:39:32.747Z,21.06
2023-05-05T08:40:32.587Z,21.12
2023-05-05T08:41:32.592Z,21.18
2023-05-05T08:42:37.003Z,21.45
2023-05-05T08:43:33.617Z,21.90
2023-05-05T08:44:32.560Z,22.08
2023-05-05T08:45:32.555Z,22.30
2023-05-05T08:46:32.551Z,22.23
2023-05-05T08:47:32.555Z,22.35
2023-05-05T08:48:32.563Z,22.54
2023-05-05T08:49:32.562Z,22.39
2023-05-05T08:50:32.549Z,22.09
2023-05-05T08:51:32.516Z,22.09
2023-05-05T08:52:32.622Z,22.12
2023-05-05T08:53:32.505Z,22.29
2023-05-05T08:54:32.497Z,22.84
2023-05-05T08:55:32.752Z,23.15
2023-05-05T08:56:32.467Z,23.38
2023-05-05T08:57:32.475Z,23.15
2023-05-05T08:58:32.491Z,23.12
2023-05-05T08:59:32.443Z,23.07
2023-05-05T09:00:32.448Z,23.22
2023-05-05T09:01:32.658Z,23.14
2023-05-05T09:02:32.546Z,23.12
2023-05-05T09:03:32.487Z,23.34
2023-05-05T09:04:32.451Z,23.44
2023-05-05T09:05:32.411Z,23.60
2023-05-05T09:06:32.415Z,23.64
2023-05-05T09:07:32.456Z,23.79
2023-05-05T09:08:32.412Z,23.86
2023-05-05T09:09:32.435Z,23.81
2023-05-05T09:10:32.378Z,23.90
2023-05-05T09:11:32.517Z,23.89
2023-05-05T09:12:32.409Z,23.92
2023-05-05T09:13:32.419Z,23.52
2023-05-05T09:14:32.336Z,23.64
2023-05-05T09:15:32.343Z,23.68
2023-05-05T09:16:32.366Z,23.63
2023-05-05T09:17:32.388Z,23.35
2023-05-05T09:18:32.309Z,23.41
2023-05-05T09:19:32.366Z,23.57
2023-05-05T09:20:32.317Z,23.62
2023-05-05T09:21:32.368Z,23.59
2023-05-05T09:22:32.285Z,23.71
2023-05-05T09:23:32.301Z,23.63
2023-05-05T09:24:32.288Z,23.59
2023-05-05T09:25:32.438Z,23.78
2023-05-05T09:26:32.257Z,23.59
2023-05-05T09:27:32.245Z,23.79
2023-05-05T09:28:32.258Z,24.23
2023-05-05T09:29:32.244Z,24.46
2023-05-05T09:30:32.241Z,24.46
2023-05-05T09:31:32.299Z,24.52
2023-05-05T09:32:32.208Z,24.34
2023-05-05T09:33:32.223Z,24.41
2023-05-05T09:34:32.218Z,24.41
2023-05-05T09:35:32.289Z,24.51
2023-05-05T09:36:32.188Z,24.52
2023-05-05T09:37:32.426Z,24.89
2023-05-05T09:38:32.167Z,25.31
2023-05-05T09:39:32.185Z,25.26
2023-05-05T09:40:32.153Z,25.31
2023-05-05T09:41:32.188Z,25.59
2023-05-05T09:42:32.167Z,25.60
2023-05-05T09:43:32.195Z,25.07
2023-05-05T09:44:32.123Z,25.45
2023-05-05T09:45:32.128Z,25.23
2023-05-05T09:46:32.189Z,25.27
2023-05-05T09:47:32.923Z,25.64
2023-05-05T09:48:32.274Z,25.67
2023-05-05T09:49:32.157Z,26.00
2023-05-05T09:50:32.144Z,26.31
2023-05-05T09:51:32.074Z,26.27
2023-05-05T09:52:32.146Z,25.82
2023-05-05T09:53:32.059Z,25.78
2023-05-05T09:54:32.058Z,26.20
2023-05-05T09:55:32.177Z,26.46
2023-05-05T09:56:32.105Z,26.28
2023-05-05T09:57:32.100Z,26.49
2023-05-05T09:58:32.100Z,26.31
2023-05-05T09:59:32.107Z,26.46
2023-05-05T10:00:32.047Z,26.73
2023-05-05T10:01:32.139Z,26.09
2023-05-05T10:02:32.060Z,26.38
2023-05-05T10:03:32.040Z,26.61
2023-05-05T10:04:32.027Z,26.96
2023-05-05T10:05:32.088Z,27.18
2023-05-05T10:06:32.081Z,26.96
2023-05-05T10:07:32.062Z,26.86
2023-05-05T10:08:31.987Z,26.94
2023-05-05T10:09:32.061Z,26.38
2023-05-05T10:10:31.988Z,26.09
2023-05-05T10:11:31.996Z,26.35
2023-05-05T10:12:31.965Z,26.35
2023-05-05T10:13:31.989Z,26.61
2023-05-05T10:14:31.943Z,26.87
2023-05-05T10:15:32.020Z,26.36
2023-05-05T10:16:31.929Z,24.46
2023-05-05T10:17:32.021Z,23.84
2023-05-05T10:18:32.001Z,24.04
2023-05-05T10:19:31.962Z,24.15
2023-05-05T10:20:31.950Z,24.09
2023-05-05T10:21:31.922Z,24.42
2023-05-05T10:22:31.927Z,24.84
2023-05-05T10:23:31.883Z,25.39
2023-05-05T10:24:31.871Z,25.81
2023-05-05T10:25:31.942Z,26.41
2023-05-05T10:26:31.822Z,26.76
2023-05-05T10:27:31.822Z,26.96
2023-05-05T10:28:31.825Z,26.87
2023-05-05T10:29:31.808Z,26.69
2023-05-05T10:30:31.825Z,26.29
2023-05-05T10:31:31.963Z,26.01
2023-05-05T10:32:51.113Z,26.81
2023-05-05T10:33:32.901Z,27.03
2023-05-05T10:34:31.806Z,27.39
2023-05-05T10:35:31.788Z,27.33
2023-05-05T10:36:31.913Z,27.43
2023-05-05T10:37:31.827Z,27.09
2023-05-05T10:38:31.801Z,27.03
2023-05-05T10:39:31.753Z,27.76
2023-05-05T10:40:31.758Z,27.83
2023-05-05T10:41:31.765Z,27.52
2023-05-05T10:42:31.748Z,27.87
2023-05-05T10:43:32.225Z,28.18
2023-05-05T10:44:31.709Z,28.32
2023-05-05T10:45:31.793Z,28.03
2023-05-05T10:46:31.748Z,26.90
2023-05-05T10:47:31.770Z,26.98
2023-05-05T10:48:31.700Z,26.46
2023-05-05T10:49:31.727Z,26.12
2023-05-05T10:50:31.689Z,25.59
2023-05-05T10:51:40.321Z,25.83
2023-05-05T10:52:32.651Z,26.49
2023-05-05T10:53:31.670Z,27.18
2023-05-05T10:54:31.651Z,26.49
2023-05-05T10:55:31.678Z,25.91
2023-05-05T10:56:31.688Z,25.94
2023-05-05T10:57:31.682Z,25.67
2023-05-05T10:58:31.676Z,25.39
2023-05-05T10:59:31.669Z,24.98
2023-05-05T11:00:31.679Z,24.51
2023-05-05T11:01:31.660Z,24.21
2023-05-05T11:02:32.297Z,24.12
2023-05-05T11:03:31.716Z,23.59
2023-05-05T11:04:31.609Z,23.49
2023-05-05T11:05:31.564Z,23.52
2023-05-05T11:06:31.610Z,23.56
2023-05-05T11:07:31.610Z,23.60
2023-05-05T11:08:31.566Z,23.71
2023-05-05T11:09:31.549Z,23.67
2023-05-05T11:10:31.528Z,23.50
2023-05-05T11:11:31.520Z,22.89
2023-05-05T11:12:31.630Z,22.49
2023-05-05T11:13:31.531Z,22.15
2023-05-05T11:14:31.578Z,21.99
2023-05-05T11:15:31.688Z,21.79
2023-05-05T11:16:31.558Z,21.68
2023-05-05T11:17:31.557Z,21.48
2023-05-05T11:18:31.489Z,21.30
2023-05-05T11:19:31.607Z,21.09
2023-05-05T11:20:31.500Z,21.01
2023-05-05T11:21:31.552Z,21.09
2023-05-05T11:22:31.427Z,21.21
2023-05-05T11:23:31.473Z,21.24
2023-05-05T11:24:31.494Z,21.26
2023-05-05T11:25:31.576Z,21.30
2023-05-05T11:26:31.483Z,21.00
2023-05-05T11:27:31.440Z,20.72
2023-05-05T11:28:31.458Z,20.83
2023-05-05T11:29:31.389Z,20.93
2023-05-05T11:30:31.426Z,21.03
2023-05-05T11:31:31.553Z,21.12
2023-05-05T11:32:31.389Z,20.93
2023-05-05T11:33:31.460Z,20.88
2023-05-05T11:34:31.426Z,20.73
2023-05-05T11:35:32.462Z,20.87
2023-05-05T11:36:31.327Z,21.18
2023-05-05T11:37:31.445Z,21.38
2023-05-05T11:38:31.306Z,21.83
2023-05-05T11:39:31.333Z,22.11
2023-05-05T11:40:31.372Z,22.39
2023-05-05T11:41:31.327Z,22.57
2023-05-05T11:42:31.365Z,22.63
2023-05-05T11:43:31.346Z,22.54
2023-05-05T11:44:31.301Z,21.64
2023-05-05T11:45:31.290Z,21.64
2023-05-05T11:46:31.334Z,21.98
2023-05-05T11:47:32.410Z,22.09
2023-05-05T11:48:31.304Z,22.36
2023-05-05T11:49:31.579Z,22.49
2023-05-05T11:50:31.330Z,22.97
2023-05-05T11:51:31.466Z,23.41
2023-05-05T11:52:31.235Z,24.21
2023-05-05T11:53:31.212Z,24.86
2023-05-05T11:54:31.280Z,25.16
2023-05-05T11:55:31.245Z,25.69
2023-05-05T11:56:31.206Z,25.81
2023-05-05T11:57:31.181Z,26.16
2023-05-05T11:58:32.245Z,26.72
2023-05-05T11:59:31.248Z,26.46
2023-05-05T12:00:31.247Z,26.38
2023-05-05T12:01:31.289Z,26.81
2023-05-05T12:02:31.244Z,26.98
2023-05-05T12:03:31.362Z,27.42
2023-05-05T12:04:31.199Z,27.38
2023-05-05T12:05:31.221Z,27.27
2023-05-05T12:06:31.146Z,27.30
2023-05-05T12:07:31.228Z,27.61
2023-05-05T12:08:31.199Z,28.08
2023-05-05T12:09:31.103Z,28.39
2023-05-05T12:10:31.083Z,28.11
2023-05-05T12:11:31.136Z,27.39
2023-05-05T12:12:31.130Z,27.09
2023-05-05T12:13:31.234Z,27.68
2023-05-05T12:14:31.123Z,28.13
2023-05-05T12:15:31.171Z,27.72
2023-05-05T12:16:31.152Z,27.42
2023-05-05T12:17:31.160Z,27.12
2023-05-05T12:18:31.103Z,26.36
2023-05-05T12:19:31.216Z,25.97
2023-05-05T12:20:31.040Z,25.66
2023-05-05T12:21:31.048Z,25.41
2023-05-05T12:22:31.087Z,25.67
2023-05-05T12:23:31.144Z,26.09
2023-05-05T12:24:31.068Z,26.17
2023-05-05T12:25:31.112Z,26.04
2023-05-05T12:26:31.080Z,25.48
2023-05-05T12:27:31.063Z,25.35
2023-05-05T12:28:31.077Z,25.14
2023-05-05T12:29:31.045Z,25.34
2023-05-05T12:30:31.093Z,25.20
2023-05-05T12:31:31.028Z,25.16
2023-05-05T12:32:30.958Z,25.07
2023-05-05T12:33:31.008Z,25.24
2023-05-05T12:34:30.968Z,24.87
2023-05-05T12:35:31.013Z,24.98
2023-05-05T12:36:30.945Z,24.98
2023-05-05T12:37:31.066Z,24.94
2023-05-05T12:38:30.997Z,24.75
2023-05-05T12:39:30.950Z,24.66
2023-05-05T12:40:30.887Z,24.46
2023-05-05T12:41:30.921Z,24.16
2023-05-05T12:42:30.930Z,23.93
2023-05-05T12:43:30.928Z,23.64
2023-05-05T12:44:30.967Z,23.26
2023-05-05T12:45:30.887Z,23.38
2023-05-05T12:46:31.009Z,23.31
2023-05-05T12:47:30.894Z,23.14
2023-05-05T12:48:30.877Z,22.96
2023-05-05T12:49:31.014Z,22.99
2023-05-05T12:50:31.951Z,23.12
2023-05-05T12:51:30.891Z,23.16
2023-05-05T12:52:30.809Z,23.35
2023-05-05T12:53:30.888Z,23.74
2023-05-05T12:54:30.832Z,24.46